PWSweather.com
Personal Weather Stations
Station Observations
IROGLAN40
AalgaardNO 4330

AalgaardNO 4330

Lat: 58.773, Lon: 5.846

Elevation: 326

Station Type: Davis Vanatge Pro2

Latest ConditionsUpdated 10:10:01 AM GMT+01:01 Saturday, Sep 23, 2017
Currently Today's Max Today's Min Today's Average
Temperature 59.1°F15.1°C 59.1°F15.1°C 53.7°F12.1°C 54.7°F12.6°C
Dew Point 50.8°F10.4°C 50.8°F10.4°C 47.4°F8.6°C 48.3°F9.1°C
Winds 2.3 mph SE3.7 kmh SE 3.5 mph ESE5.6 kmh ESE - 1.5 mph 2.4 kmh
Wind Gusts 3.5 mph5.6 kmh 6.9 mph11.1 kmh - -
Humidity 74% 80% 74% 79%
Pressure 30.26 in1024.7 mb 30.26 in1024.7 mb 30.19 in1022.4 mb -
Precipitation - 0.02 in0.5 mm - -
Hour Temp Dew Point Humidity Winds Wind Gusts Pressure Precip Precip Rate Daily Precip Total
10:10 AM 59.1°F15.1°C 50.8°F10.4°C 74% 2.3 mph SE3.7 kmh SE 3.5 mph5.6 kmh 30.26 in1024.7 mb - 0.00 in0.0 mm 0.02 in0.5 mm
10:00 AM 58.0°F14.4°C 50.8°F10.4°C 77% 2.3 mph SE3.7 kmh SE 3.5 mph5.6 kmh 30.26 in1024.7 mb - 0.00 in0.0 mm 0.02 in0.5 mm
09:50 AM 57.3°F14.1°C 50.8°F10.4°C 79% 1.2 mph ESE1.9 kmh ESE 3.5 mph5.6 kmh 30.26 in1024.7 mb - 0.00 in0.0 mm 0.02 in0.5 mm
09:40 AM 56.5°F13.6°C 50.4°F10.2°C 80% 1.2 mph E1.9 kmh E 2.3 mph3.7 kmh 30.26 in1024.7 mb - 0.00 in0.0 mm 0.02 in0.5 mm
09:30 AM 56.1°F13.4°C 50.0°F10.0°C 80% Calm Calm 1.2 mph1.9 kmh 30.26 in1024.7 mb - 0.00 in0.0 mm 0.02 in0.5 mm
09:20 AM 55.8°F13.2°C 49.7°F9.8°C 80% Calm Calm 1.2 mph1.9 kmh 30.25 in1024.4 mb - 0.00 in0.0 mm 0.02 in0.5 mm
09:10 AM 55.5°F13.1°C 49.1°F9.5°C 79% Calm Calm 1.2 mph1.9 kmh 30.25 in1024.4 mb - 0.00 in0.0 mm 0.02 in0.5 mm
09:00 AM 55.4°F13.0°C 49.0°F9.4°C 79% 2.3 mph SE3.7 kmh SE 3.5 mph5.6 kmh 30.25 in1024.4 mb - 0.00 in0.0 mm 0.02 in0.5 mm
08:50 AM 55.3°F12.9°C 48.9°F9.4°C 79% 2.3 mph SE3.7 kmh SE 3.5 mph5.6 kmh 30.25 in1024.4 mb - 0.00 in0.0 mm 0.02 in0.5 mm
08:40 AM 55.1°F12.8°C 48.7°F9.3°C 79% 1.2 mph SE1.9 kmh SE 3.5 mph5.6 kmh 30.25 in1024.4 mb - 0.00 in0.0 mm 0.02 in0.5 mm
08:30 AM 55.1°F12.8°C 48.7°F9.3°C 79% 2.3 mph SE3.7 kmh SE 3.5 mph5.6 kmh 30.24 in1024.0 mb - 0.00 in0.0 mm 0.02 in0.5 mm
08:20 AM 54.9°F12.7°C 48.5°F9.2°C 79% 2.3 mph SE3.7 kmh SE 4.6 mph7.4 kmh 30.24 in1024.0 mb - 0.00 in0.0 mm 0.02 in0.5 mm
08:10 AM 54.5°F12.5°C 48.5°F9.2°C 80% 3.5 mph SE5.6 kmh SE 6.9 mph11.1 kmh 30.24 in1024.0 mb - 0.00 in0.0 mm 0.02 in0.5 mm
08:00 AM 54.5°F12.5°C 48.5°F9.2°C 80% 1.2 mph SE1.9 kmh SE 2.3 mph3.7 kmh 30.24 in1024.0 mb - 0.00 in0.0 mm 0.02 in0.5 mm
07:50 AM 54.7°F12.6°C 48.6°F9.2°C 80% Calm Calm -- 30.24 in1024.0 mb - 0.00 in0.0 mm 0.02 in0.5 mm
07:40 AM 54.8°F12.7°C 48.7°F9.3°C 80% Calm Calm -- 30.24 in1024.0 mb - 0.00 in0.0 mm 0.02 in0.5 mm
07:30 AM 54.8°F12.7°C 48.4°F9.1°C 79% Calm Calm -- 30.23 in1023.7 mb - 0.00 in0.0 mm 0.02 in0.5 mm
07:20 AM 54.8°F12.7°C 48.4°F9.1°C 79% 1.2 mph SE1.9 kmh SE 3.5 mph5.6 kmh 30.23 in1023.7 mb - 0.00 in0.0 mm 0.02 in0.5 mm
07:10 AM 54.9°F12.7°C 48.5°F9.2°C 79% 1.2 mph SE1.9 kmh SE 3.5 mph5.6 kmh 30.22 in1023.4 mb - 0.00 in0.0 mm 0.02 in0.5 mm
07:00 AM 54.6°F12.6°C 48.2°F9.0°C 79% 2.3 mph SE3.7 kmh SE 3.5 mph5.6 kmh 30.22 in1023.4 mb - 0.00 in0.0 mm 0.02 in0.5 mm
06:50 AM 54.4°F12.4°C 48.0°F8.9°C 79% 2.3 mph SSE3.7 kmh SSE 3.5 mph5.6 kmh 30.22 in1023.4 mb - 0.00 in0.0 mm 0.02 in0.5 mm
06:40 AM 54.1°F12.3°C 48.1°F8.9°C 80% 1.2 mph SE1.9 kmh SE 4.6 mph7.4 kmh 30.22 in1023.4 mb - 0.00 in0.0 mm 0.02 in0.5 mm
06:30 AM 53.8°F12.1°C 47.8°F8.8°C 80% 1.2 mph SE1.9 kmh SE 3.5 mph5.6 kmh 30.22 in1023.4 mb - 0.00 in0.0 mm 0.02 in0.5 mm
06:20 AM 53.9°F12.2°C 47.9°F8.8°C 80% 1.2 mph SE1.9 kmh SE 2.3 mph3.7 kmh 30.22 in1023.4 mb - 0.01 in0.3 mm 0.02 in0.5 mm
06:10 AM 53.9°F12.2°C 47.9°F8.8°C 80% Calm Calm -- 30.22 in1023.4 mb - 0.00 in0.0 mm 0.01 in0.3 mm
06:00 AM 53.7°F12.1°C 47.7°F8.7°C 80% 1.2 mph SSE1.9 kmh SSE 2.3 mph3.7 kmh 30.22 in1023.4 mb - 0.00 in0.0 mm 0.01 in0.3 mm
05:50 AM 53.7°F12.1°C 47.7°F8.7°C 80% 1.2 mph SE1.9 kmh SE 3.5 mph5.6 kmh 30.22 in1023.4 mb - 0.00 in0.0 mm 0.01 in0.3 mm
05:40 AM 54.1°F12.3°C 48.1°F8.9°C 80% 1.2 mph SE1.9 kmh SE 2.3 mph3.7 kmh 30.22 in1023.4 mb - 0.00 in0.0 mm 0.01 in0.3 mm
05:30 AM 54.2°F12.3°C 48.2°F9.0°C 80% 1.2 mph SE1.9 kmh SE 3.5 mph5.6 kmh 30.22 in1023.4 mb - 0.00 in0.0 mm 0.01 in0.3 mm
05:20 AM 54.2°F12.3°C 47.8°F8.8°C 79% 2.3 mph SE3.7 kmh SE 3.5 mph5.6 kmh 30.21 in1023.0 mb - 0.00 in0.0 mm 0.01 in0.3 mm
05:10 AM 54.2°F12.3°C 47.8°F8.8°C 79% Calm Calm -- 30.21 in1023.0 mb - 0.00 in0.0 mm 0.01 in0.3 mm
05:00 AM 54.4°F12.4°C 48.3°F9.1°C 80% 2.3 mph SE3.7 kmh SE 3.5 mph5.6 kmh 30.22 in1023.4 mb - 0.00 in0.0 mm 0.01 in0.3 mm
04:50 AM 54.2°F12.3°C 48.2°F9.0°C 80% 2.3 mph SE3.7 kmh SE 3.5 mph5.6 kmh 30.21 in1023.0 mb - 0.00 in0.0 mm 0.01 in0.3 mm
04:40 AM 54.2°F12.3°C 48.2°F9.0°C 80% 1.2 mph ESE1.9 kmh ESE 4.6 mph7.4 kmh 30.21 in1023.0 mb - 0.00 in0.0 mm 0.01 in0.3 mm
04:30 AM 54.2°F12.3°C 48.2°F9.0°C 80% 1.2 mph SSE1.9 kmh SSE 2.3 mph3.7 kmh 30.21 in1023.0 mb - 0.00 in0.0 mm 0.01 in0.3 mm
04:20 AM 54.0°F12.2°C 48.0°F8.9°C 80% 3.5 mph SE5.6 kmh SE 6.9 mph11.1 kmh 30.21 in1023.0 mb - 0.00 in0.0 mm 0.01 in0.3 mm
04:10 AM 54.1°F12.3°C 48.1°F8.9°C 80% 2.3 mph ESE3.7 kmh ESE 3.5 mph5.6 kmh 30.21 in1023.0 mb - 0.00 in0.0 mm 0.01 in0.3 mm
04:00 AM 54.1°F12.3°C 48.1°F8.9°C 80% 1.2 mph SE1.9 kmh SE 2.3 mph3.7 kmh 30.20 in1022.7 mb - 0.00 in0.0 mm 0.01 in0.3 mm
03:50 AM 53.9°F12.2°C 47.9°F8.8°C 80% 3.5 mph SE5.6 kmh SE 4.6 mph7.4 kmh 30.20 in1022.7 mb - 0.00 in0.0 mm 0.01 in0.3 mm
03:40 AM 53.8°F12.1°C 47.8°F8.8°C 80% 2.3 mph SE3.7 kmh SE 3.5 mph5.6 kmh 30.20 in1022.7 mb - 0.00 in0.0 mm 0.01 in0.3 mm
03:30 AM 54.0°F12.2°C 48.0°F8.9°C 80% Calm Calm -- 30.20 in1022.7 mb - 0.00 in0.0 mm 0.01 in0.3 mm
03:20 AM 54.1°F12.3°C 47.7°F8.7°C 79% Calm Calm -- 30.20 in1022.7 mb - 0.00 in0.0 mm 0.01 in0.3 mm
03:10 AM 54.4°F12.4°C 48.0°F8.9°C 79% 1.2 mph SE1.9 kmh SE 2.3 mph3.7 kmh 30.20 in1022.7 mb - 0.00 in0.0 mm 0.01 in0.3 mm
03:00 AM 54.6°F12.6°C 47.9°F8.8°C 78% 1.2 mph SE1.9 kmh SE 3.5 mph5.6 kmh 30.20 in1022.7 mb - 0.00 in0.0 mm 0.01 in0.3 mm
02:50 AM 54.9°F12.7°C 47.8°F8.8°C 77% Calm Calm -- 30.20 in1022.7 mb - 0.00 in0.0 mm 0.01 in0.3 mm
02:40 AM 55.1°F12.8°C 47.7°F8.7°C 76% 1.2 mph SE1.9 kmh SE 3.5 mph5.6 kmh 30.20 in1022.7 mb - 0.00 in0.0 mm 0.01 in0.3 mm
02:30 AM 55.3°F12.9°C 47.5°F8.6°C 75% 2.3 mph SSE3.7 kmh SSE 3.5 mph5.6 kmh 30.20 in1022.7 mb - 0.00 in0.0 mm 0.01 in0.3 mm
02:20 AM 55.3°F12.9°C 47.5°F8.6°C 75% 2.3 mph SE3.7 kmh SE 3.5 mph5.6 kmh 30.20 in1022.7 mb - 0.01 in0.3 mm 0.01 in0.3 mm
02:10 AM 55.2°F12.9°C 47.4°F8.6°C 75% 3.5 mph SE5.6 kmh SE 5.8 mph9.3 kmh 30.20 in1022.7 mb - 0.00 in0.0 mm 0.00 in0.0 mm
02:00 AM 54.9°F12.7°C 47.5°F8.6°C 76% 3.5 mph SE5.6 kmh SE 4.6 mph7.4 kmh 30.19 in1022.4 mb - 0.00 in0.0 mm 0.00 in0.0 mm
01:50 AM 54.8°F12.7°C 47.7°F8.7°C 77% 2.3 mph SE3.7 kmh SE 4.6 mph7.4 kmh 30.20 in1022.7 mb - 0.00 in0.0 mm 0.00 in0.0 mm
01:40 AM 54.7°F12.6°C 47.6°F8.7°C 77% 2.3 mph SSE3.7 kmh SSE 3.5 mph5.6 kmh 30.20 in1022.7 mb - 0.00 in0.0 mm 0.00 in0.0 mm
01:30 AM 54.6°F12.6°C 47.5°F8.6°C 77% 1.2 mph SSE1.9 kmh SSE 3.5 mph5.6 kmh 30.20 in1022.7 mb - 0.00 in0.0 mm 0.00 in0.0 mm
01:20 AM 54.5°F12.5°C 47.8°F8.8°C 78% 2.3 mph SE3.7 kmh SE 4.6 mph7.4 kmh 30.20 in1022.7 mb - 0.00 in0.0 mm 0.00 in0.0 mm
01:10 AM 54.3°F12.4°C 47.6°F8.7°C 78% 3.5 mph ESE5.6 kmh ESE 4.6 mph7.4 kmh 30.20 in1022.7 mb - 0.00 in0.0 mm 0.00 in0.0 mm
01:00 AM 54.1°F12.3°C 47.7°F8.7°C 79% 2.3 mph ESE3.7 kmh ESE 3.5 mph5.6 kmh 30.20 in1022.7 mb - 0.00 in0.0 mm 0.00 in0.0 mm
12:50 AM 54.1°F12.3°C 47.7°F8.7°C 79% 2.3 mph ESE3.7 kmh ESE 3.5 mph5.6 kmh 30.20 in1022.7 mb - 0.00 in0.0 mm 0.00 in0.0 mm
12:40 AM 54.0°F12.2°C 47.6°F8.7°C 79% 1.2 mph SE1.9 kmh SE 3.5 mph5.6 kmh 30.19 in1022.4 mb - 0.00 in0.0 mm 0.00 in0.0 mm
12:30 AM 54.1°F12.3°C 47.7°F8.7°C 79% Calm Calm -- 30.19 in1022.4 mb - 0.00 in0.0 mm 0.00 in0.0 mm
12:20 AM 54.1°F12.3°C 47.7°F8.7°C 79% Calm Calm 1.2 mph1.9 kmh 30.19 in1022.4 mb - 0.00 in0.0 mm 0.00 in0.0 mm
12:10 AM 54.2°F12.3°C 47.8°F8.8°C 79% 1.2 mph SE1.9 kmh SE 2.3 mph3.7 kmh 30.19 in1022.4 mb - 0.00 in0.0 mm 0.00 in0.0 mm
12:00 AM 54.1°F12.3°C 47.7°F8.7°C 79% 1.2 mph SE1.9 kmh SE 1.2 mph1.9 kmh 30.19 in1022.4 mb - 0.00 in0.0 mm 0.00 in0.0 mm